Time;durP1;ratioP1;P1;durP2;ratioP2;P2;SDS_P1;SDS_P2;PMS_P1;PMS_P2;Temp;Humidity;BMP_temperature;BMP_pressure;BME280_temperature;BME280_humidity;BME280_pressure;Samples;Min_cycle;Max_cycle;Signal;HPM_P1;HPM_P2
2022/12/09 00:00:38;;;;;;;37.85;23.35;;;;;;;9.83;62.69;101182.84;5041291;28;20480;-76
2022/12/09 00:03:03;;;;;;;36.67;22.57;;;;;;;9.82;62.45;101175.88;5026131;28;20391;-76
2022/12/09 00:05:29;;;;;;;37.20;22.40;;;;;;;9.75;62.55;101181.78;5031757;28;20390;-77
2022/12/09 00:07:54;;;;;;;37.43;23.50;;;;;;;9.74;62.40;101195.16;5032142;28;20442;-77
2022/12/09 00:10:20;;;;;;;39.15;23.85;;;;;;;9.78;62.65;101185.97;5038309;28;20386;-77
2022/12/09 00:12:45;;;;;;;36.93;23.20;;;;;;;9.77;62.81;101190.41;5031343;28;20391;-77
2022/12/09 00:15:11;;;;;;;36.53;22.97;;;;;;;9.73;62.98;101190.88;5032152;28;20414;-77
2022/12/09 00:17:36;;;;;;;36.25;22.48;;;;;;;9.70;63.36;101191.16;5032887;28;20393;-77
2022/12/09 00:20:03;;;;;;;36.50;22.63;;;;;;;9.71;62.61;101196.31;5024153;28;20411;-77
2022/12/09 00:22:28;;;;;;;36.40;23.27;;;;;;;9.70;63.05;101199.09;5032539;28;20889;-77
2022/12/09 00:24:54;;;;;;;35.97;21.73;;;;;;;9.65;62.72;101191.66;5046693;28;20386;-77
2022/12/09 00:27:19;;;;;;;33.07;20.43;;;;;;;9.73;63.30;101198.81;5033340;28;20371;-77
2022/12/09 00:29:45;;;;;;;34.92;21.00;;;;;;;9.80;62.20;101207.81;5033547;28;20375;-77
2022/12/09 00:32:10;;;;;;;32.37;19.33;;;;;;;9.75;62.48;101200.31;5033493;28;20378;-76
2022/12/09 00:34:35;;;;;;;32.13;20.80;;;;;;;9.72;63.04;101198.00;5033546;28;20401;-76
2022/12/09 00:37:01;;;;;;;34.08;20.33;;;;;;;9.79;62.43;101194.72;5042589;28;20817;-77
2022/12/09 00:39:26;;;;;;;32.80;20.50;;;;;;;9.78;62.43;101196.53;5034922;28;20406;-77
2022/12/09 00:41:52;;;;;;;34.30;21.05;;;;;;;9.81;62.88;101201.50;5045017;28;20452;-76
2022/12/09 00:44:18;;;;;;;31.20;21.20;;;;;;;9.87;62.49;101200.09;5033288;28;20831;-76
2022/12/09 00:46:43;;;;;;;36.40;21.90;;;;;;;9.89;62.00;101206.88;5032709;28;20430;-76
2022/12/09 00:49:09;;;;;;;36.97;20.57;;;;;;;9.97;62.03;101208.75;5044797;28;20384;-76
2022/12/09 00:51:37;;;;;;;34.03;20.35;;;;;;;9.93;62.03;101196.81;5050451;28;21376;-76
2022/12/09 00:54:02;;;;;;;32.95;19.75;;;;;;;9.86;62.14;101196.59;5041785;28;20470;-76
2022/12/09 00:56:29;;;;;;;35.28;21.30;;;;;;;9.86;62.36;101196.59;5034482;28;20469;-75
2022/12/09 00:58:55;;;;;;;29.95;19.23;;;;;;;9.90;62.24;101183.88;5052206;28;20401;-76
2022/12/09 01:01:21;;;;;;;30.63;19.05;;;;;;;9.93;61.80;101187.06;5046214;28;20408;-76
2022/12/09 01:03:47;;;;;;;30.87;19.70;;;;;;;9.94;61.81;101195.84;5049640;28;20540;-77
2022/12/09 01:06:18;;;;;;;29.00;18.83;;;;;;;9.95;62.31;101193.03;5050532;28;20489;-76
2022/12/09 01:08:43;;;;;;;35.95;20.55;;;;;;;10.02;61.90;101187.13;5048466;28;20400;-76
2022/12/09 01:11:17;;;;;;;41.47;23.08;;;;;;;9.93;61.90;101180.94;5048545;28;20385;-76
2022/12/09 01:13:43;;;;;;;36.88;20.98;;;;;;;9.88;61.94;101185.84;5046174;28;20383;-76
2022/12/09 01:16:16;;;;;;;38.72;20.35;;;;;;;9.93;62.18;101189.69;5043010;28;20450;-76
2022/12/09 01:18:43;;;;;;;40.60;21.50;;;;;;;9.92;61.85;101185.41;5046384;28;20411;-76
2022/12/09 01:21:08;;;;;;;49.20;24.50;;;;;;;9.92;61.91;101184.56;5046680;28;20396;-76
2022/12/09 01:23:34;;;;;;;52.42;24.80;;;;;;;9.81;61.86;101176.84;5045819;28;20733;-76
2022/12/09 01:26:02;;;;;;;43.37;23.03;;;;;;;9.84;62.01;101173.91;5043527;28;20409;-76
2022/12/09 01:28:28;;;;;;;44.85;24.30;;;;;;;9.91;61.98;101175.78;5030032;28;20405;-75
2022/12/09 01:30:53;;;;;;;41.87;22.00;;;;;;;9.95;62.00;101169.19;5044104;28;20389;-76
2022/12/09 01:33:19;;;;;;;36.37;20.13;;;;;;;9.97;61.49;101170.88;5045301;28;20416;-76
2022/12/09 01:35:44;;;;;;;36.35;19.90;;;;;;;9.94;61.85;101164.91;5042320;28;20433;-76
2022/12/09 01:38:09;;;;;;;42.17;22.70;;;;;;;9.97;61.66;101176.16;5045310;28;20865;-76
2022/12/09 01:40:35;;;;;;;73.85;37.92;;;;;;;9.97;61.47;101170.88;5047328;28;20761;-77
2022/12/09 01:43:00;;;;;;;39.77;22.43;;;;;;;9.94;61.70;101167.53;5042132;28;20403;-76
2022/12/09 01:45:29;;;;;;;30.83;18.07;;;;;;;9.88;61.93;101172.63;5041935;28;20438;-76
2022/12/09 01:48:12;;;;;;;31.17;18.05;;;;;;;9.84;62.06;101163.31;5042922;28;20413;-76
2022/12/09 01:50:41;;;;;;;33.38;19.05;;;;;;;9.79;62.08;101158.47;5042499;28;20417;-77
2022/12/09 01:53:07;;;;;;;33.75;19.23;;;;;;;9.82;61.77;101167.94;5047099;28;20409;-77
2022/12/09 01:55:34;;;;;;;35.83;18.80;;;;;;;9.81;61.99;101169.75;5048697;28;20431;-76
2022/12/09 01:57:59;;;;;;;35.35;19.67;;;;;;;9.82;61.90;101176.72;5043089;28;20476;-76
2022/12/09 02:00:25;;;;;;;31.67;18.33;;;;;;;9.79;62.38;101170.91;5048796;28;20472;-76
2022/12/09 02:02:53;;;;;;;39.08;22.48;;;;;;;9.74;62.14;101168.69;5046240;28;20384;-76
2022/12/09 02:05:20;;;;;;;34.03;18.38;;;;;;;9.86;62.25;101164.81;5042448;28;20753;-76
2022/12/09 02:07:46;;;;;;;87.97;59.00;;;;;;;9.92;61.93;101161.56;5046382;28;20396;-76
2022/12/09 02:10:14;;;;;;;32.53;18.17;;;;;;;9.80;61.86;101152.22;5042881;28;20384;-75
2022/12/09 02:13:18;;;;;;;46.97;35.10;;;;;;;9.75;62.29;101152.66;5045097;28;20736;-76
2022/12/09 02:15:49;;;;;;;41.13;21.05;;;;;;;9.76;62.23;101140.28;5048340;28;20471;-76
2022/12/09 02:18:22;;;;;;;35.55;19.17;;;;;;;9.86;61.92;101145.47;5047913;28;20415;-77
2022/12/09 02:21:03;;;;;;;173.98;157.63;;;;;;;9.86;62.25;101154.22;5053911;28;20385;-77
2022/12/09 02:23:39;;;;;;;41.13;28.95;;;;;;;9.86;61.94;101151.56;5045316;28;20444;-76
2022/12/09 02:26:42;;;;;;;32.47;18.65;;;;;;;9.87;61.88;101147.13;5048693;28;20380;-76
2022/12/09 02:29:08;;;;;;;66.00;56.28;;;;;;;9.82;61.90;101144.94;5047248;28;20481;-76
2022/12/09 02:31:33;;;;;;;85.20;75.90;;;;;;;9.86;62.16;101158.69;5046448;28;20467;-75
2022/12/09 02:34:18;;;;;;;35.37;24.30;;;;;;;9.82;61.93;101154.72;5042775;28;20384;-76
2022/12/09 02:37:14;;;;;;;35.45;26.23;;;;;;;9.86;61.65;101156.06;5043986;28;20446;-76
2022/12/09 02:39:53;;;;;;;38.30;28.45;;;;;;;9.86;61.60;101153.41;5048331;28;20423;-77
2022/12/09 02:42:22;;;;;;;32.78;20.95;;;;;;;9.78;61.64;101148.88;5044056;28;20400;-76
2022/12/09 02:44:50;;;;;;;82.07;73.77;;;;;;;9.86;62.08;101153.41;5039559;28;20495;-76
2022/12/09 02:47:21;;;;;;;34.33;24.67;;;;;;;9.80;61.82;101156.69;5045114;28;20397;-76
2022/12/09 02:49:50;;;;;;;31.88;21.30;;;;;;;9.87;61.75;101155.09;5042050;28;20484;-75
2022/12/09 02:52:18;;;;;;;42.08;36.08;;;;;;;9.85;62.10;101157.88;5040065;28;20479;-76
2022/12/09 02:54:43;;;;;;;55.80;50.30;;;;;;;9.76;61.86;101164.09;5042913;28;20502;-76
2022/12/09 02:57:15;;;;;;;59.93;53.90;;;;;;;9.77;61.88;101163.09;5042869;28;20472;-76
2022/12/09 02:59:40;;;;;;;43.67;39.00;;;;;;;9.78;61.85;101159.47;5046057;28;20765;-76
2022/12/09 03:02:34;;;;;;;31.48;19.42;;;;;;;9.87;61.50;101161.19;5044549;28;20396;-76
2022/12/09 03:05:37;;;;;;;25.88;16.70;;;;;;;9.87;61.67;101155.09;5044055;28;20434;-76
2022/12/09 03:08:05;;;;;;;29.73;21.50;;;;;;;9.87;61.48;101165.66;5027928;28;20867;-75
2022/12/09 03:10:39;;;;;;;31.60;23.30;;;;;;;9.86;61.42;101167.47;5044371;28;20381;-76
2022/12/09 03:13:22;;;;;;;27.35;17.42;;;;;;;9.70;61.80;101160.22;5037950;28;20388;-76
2022/12/09 03:15:53;;;;;;;33.83;26.30;;;;;;;9.72;61.97;101162.72;5041335;28;20403;-75
2022/12/09 03:18:24;;;;;;;31.70;23.60;;;;;;;9.79;61.92;101162.94;5042460;28;20389;-76
2022/12/09 03:20:50;;;;;;;30.50;19.70;;;;;;;9.83;61.68;101153.69;5040787;28;20892;-75
2022/12/09 03:23:19;;;;;;;30.20;24.13;;;;;;;9.76;61.88;101146.38;5039963;28;20395;-76
2022/12/09 03:25:51;;;;;;;31.00;23.55;;;;;;;9.76;61.69;101150.88;5044485;28;20389;-77
2022/12/09 03:28:22;;;;;;;23.83;15.23;;;;;;;9.75;61.92;101150.00;5041103;28;20493;-76
2022/12/09 03:30:48;;;;;;;52.13;47.10;;;;;;;9.74;61.66;101142.22;5037392;28;20448;-76
2022/12/09 03:33:17;;;;;;;26.67;18.53;;;;;;;9.75;61.98;101138.59;5023416;28;20392;-76
2022/12/09 03:35:48;;;;;;;23.97;15.30;;;;;;;9.71;62.12;101140.72;5028925;28;20399;-76
2022/12/09 03:38:16;;;;;;;31.50;25.73;;;;;;;9.79;61.45;101144.41;5028689;28;20391;-76
2022/12/09 03:40:42;;;;;;;27.10;20.25;;;;;;;9.81;61.72;101155.69;5028484;28;20501;-76
2022/12/09 03:43:09;;;;;;;27.83;21.13;;;;;;;9.85;61.27;101146.44;5029357;28;20391;-76
2022/12/09 03:45:35;;;;;;;22.73;16.00;;;;;;;9.79;61.35;101144.41;5033694;28;20426;-76
2022/12/09 03:48:01;;;;;;;28.23;21.85;;;;;;;9.78;61.37;101151.53;5029917;28;20410;-76
2022/12/09 03:50:33;;;;;;;28.42;20.85;;;;;;;9.77;61.52;101137.44;5018282;28;20400;-77
2022/12/09 03:53:11;;;;;;;23.52;15.27;;;;;;;9.69;62.05;101137.41;5025581;28;20396;-77
2022/12/09 03:55:49;;;;;;;26.10;17.25;;;;;;;9.59;62.53;101141.13;5029476;28;20394;-77
2022/12/09 03:58:16;;;;;;;28.50;21.15;;;;;;;9.55;62.64;101136.13;5025818;28;20778;-77
2022/12/09 04:00:42;;;;;;;25.02;16.52;;;;;;;9.56;62.20;101143.09;5044625;28;20489;-77
2022/12/09 04:03:08;;;;;;;24.55;16.83;;;;;;;9.55;62.63;101149.34;5039431;28;20395;-76
2022/12/09 04:05:34;;;;;;;24.17;16.00;;;;;;;9.49;62.41;101149.13;5022538;28;20390;-76
2022/12/09 04:07:59;;;;;;;27.67;20.63;;;;;;;9.46;62.43;101138.88;5025785;28;20382;-75
2022/12/09 04:10:25;;;;;;;31.27;24.00;;;;;;;9.47;62.39;101136.06;5022397;28;20858;-75
2022/12/09 04:12:50;;;;;;;25.30;15.40;;;;;;;9.45;62.31;101126.59;5042503;28;20481;-75
2022/12/09 04:15:16;;;;;;;23.30;15.77;;;;;;;9.50;62.38;101127.81;5014584;28;20403;-75
2022/12/09 04:17:41;;;;;;;23.98;15.65;;;;;;;9.56;62.17;101126.34;5024263;28;20761;-76
2022/12/09 04:20:07;;;;;;;25.67;17.10;;;;;;;9.57;62.21;101125.38;5024429;28;20868;-76
2022/12/09 04:22:33;;;;;;;27.33;20.88;;;;;;;9.60;61.70;101132.19;5035134;28;20380;-76
2022/12/09 04:24:58;;;;;;;24.73;17.43;;;;;;;9.57;62.24;101147.38;5023256;28;20447;-76
2022/12/09 04:27:23;;;;;;;38.72;34.58;;;;;;;9.55;62.00;101136.13;5052412;28;20373;-76
2022/12/09 04:29:49;;;;;;;24.10;16.97;;;;;;;9.59;62.48;101141.94;5050711;28;20880;-76
2022/12/09 04:32:14;;;;;;;25.87;14.70;;;;;;;9.70;61.76;101157.56;5032917;28;20390;-75
2022/12/09 04:34:40;;;;;;;22.77;15.02;;;;;;;9.74;61.79;101150.16;5047537;28;20372;-76
2022/12/09 04:37:06;;;;;;;22.83;14.43;;;;;;;9.69;62.29;101145.34;5038184;28;20474;-76
2022/12/09 04:39:31;;;;;;;23.93;15.57;;;;;;;9.62;62.10;101139.00;5041634;28;20400;-76
2022/12/09 04:41:57;;;;;;;23.55;14.90;;;;;;;9.59;62.07;101133.19;5038568;28;20386;-76
2022/12/09 04:44:22;;;;;;;23.17;15.00;;;;;;;9.53;62.25;101139.91;5032725;28;20391;-77
2022/12/09 04:46:48;;;;;;;26.03;17.17;;;;;;;9.52;62.37;101125.84;5032259;28;20501;-77
2022/12/09 04:49:13;;;;;;;157.43;143.80;;;;;;;9.57;62.44;101128.03;5025755;28;20382;-76
2022/12/09 04:51:39;;;;;;;25.63;18.40;;;;;;;9.63;62.63;101119.47;5031608;28;20467;-76
2022/12/09 04:54:05;;;;;;;23.43;15.60;;;;;;;9.64;61.90;101128.25;5029753;28;20378;-77
2022/12/09 04:56:31;;;;;;;21.93;14.33;;;;;;;9.56;62.27;101129.88;5033012;28;20390;-77
2022/12/09 04:58:56;;;;;;;22.48;15.85;;;;;;;9.51;61.99;101124.19;5030316;28;20441;-76
2022/12/09 05:01:22;;;;;;;23.45;15.50;;;;;;;9.59;62.46;101141.94;5030678;28;20395;-77
2022/12/09 05:03:50;;;;;;;22.83;14.02;;;;;;;9.52;62.13;101138.25;5032291;28;20387;-77
2022/12/09 05:06:16;;;;;;;22.17;14.53;;;;;;;9.64;62.25;101134.38;5030850;28;20492;-76
2022/12/09 05:08:42;;;;;;;20.85;14.18;;;;;;;9.69;61.77;101142.69;5031973;28;20731;-75
2022/12/09 05:11:08;;;;;;;20.92;14.60;;;;;;;9.64;62.02;101147.63;5043424;28;20390;-77
2022/12/09 05:13:34;;;;;;;21.65;14.18;;;;;;;9.65;61.99;101148.44;5041602;28;20476;-77
2022/12/09 05:16:01;;;;;;;23.40;14.33;;;;;;;9.65;62.30;101159.88;5045934;28;20385;-77
2022/12/09 05:18:27;;;;;;;22.20;14.23;;;;;;;9.66;62.15;101158.06;5041241;28;20710;-77
2022/12/09 05:20:53;;;;;;;22.42;14.10;;;;;;;9.75;61.76;101157.13;5038244;28;20933;-77
2022/12/09 05:23:19;;;;;;;22.05;13.77;;;;;;;9.80;61.79;101159.34;5040200;28;20423;-77
2022/12/09 05:25:44;;;;;;;22.85;14.07;;;;;;;9.77;61.39;101152.50;5044121;28;20389;-77
2022/12/09 05:28:10;;;;;;;19.92;13.13;;;;;;;9.68;61.94;101142.84;5029276;28;20394;-77
2022/12/09 05:30:36;;;;;;;20.23;13.30;;;;;;;9.60;62.22;101153.34;5029347;28;20398;-76
2022/12/09 05:33:02;;;;;;;19.10;13.13;;;;;;;9.57;62.21;101157.97;5026196;28;20724;-76
2022/12/09 05:35:27;;;;;;;21.60;14.70;;;;;;;9.54;62.10;101162.75;5029072;28;20390;-76
2022/12/09 05:37:52;;;;;;;21.83;14.03;;;;;;;9.56;62.48;101166.06;5025520;28;20402;-76
2022/12/09 05:40:18;;;;;;;22.73;14.37;;;;;;;9.60;61.79;101162.16;5029985;28;20402;-76
2022/12/09 05:42:43;;;;;;;24.37;14.77;;;;;;;9.64;61.88;101166.16;5036382;28;20504;-76
2022/12/09 05:45:09;;;;;;;25.15;15.10;;;;;;;9.67;61.68;101176.44;5047879;28;20385;-76
2022/12/09 05:47:36;;;;;;;23.20;15.38;;;;;;;9.67;61.75;101172.94;5047007;28;20409;-76
2022/12/09 05:50:02;;;;;;;22.77;15.00;;;;;;;9.67;61.84;101167.63;5043864;28;20393;-76
2022/12/09 05:52:28;;;;;;;22.20;14.93;;;;;;;9.61;61.61;101163.78;5036734;28;20779;-77
2022/12/09 05:54:53;;;;;;;22.10;14.53;;;;;;;9.66;62.29;101166.00;5028089;28;20854;-77
2022/12/09 05:57:19;;;;;;;22.48;14.10;;;;;;;9.56;62.04;101164.25;5030733;28;20401;-77
2022/12/09 05:59:44;;;;;;;20.47;13.63;;;;;;;9.51;62.54;101160.41;5024091;28;20843;-76
2022/12/09 06:02:10;;;;;;;21.37;12.83;;;;;;;9.40;62.51;101142.09;5029873;28;20397;-76
2022/12/09 06:04:35;;;;;;;21.88;13.25;;;;;;;9.38;62.37;101152.84;5031225;28;20703;-76
2022/12/09 06:07:01;;;;;;;19.77;13.37;;;;;;;9.37;62.79;101149.38;5032200;28;20421;-76
2022/12/09 06:09:26;;;;;;;22.50;13.43;;;;;;;9.28;62.47;101141.50;5031459;28;20425;-76
2022/12/09 06:11:52;;;;;;;21.52;13.50;;;;;;;9.31;62.64;101149.97;5031733;28;20386;-76
2022/12/09 06:14:17;;;;;;;21.90;13.30;;;;;;;9.30;62.56;101152.78;5027488;28;20772;-76
2022/12/09 06:16:43;;;;;;;22.43;14.73;;;;;;;9.27;62.73;101159.19;5031241;28;20497;-76
2022/12/09 06:19:10;;;;;;;21.27;13.93;;;;;;;9.29;62.79;101154.59;5030272;28;20506;-75
2022/12/09 06:21:39;;;;;;;34.30;22.53;;;;;;;9.29;63.20;101157.25;5030687;28;20448;-77
2022/12/09 06:24:06;;;;;;;26.55;17.08;;;;;;;9.33;62.80;101169.19;5031147;28;20440;-76
2022/12/09 06:26:31;;;;;;;24.38;16.83;;;;;;;9.47;62.68;101172.25;5030355;28;20784;-76
2022/12/09 06:28:58;;;;;;;23.10;16.10;;;;;;;9.42;62.64;101172.75;5031024;28;20866;-76
2022/12/09 06:31:24;;;;;;;26.65;17.27;;;;;;;9.44;62.46;101183.19;5031361;28;20388;-76
2022/12/09 06:33:50;;;;;;;27.67;17.95;;;;;;;9.47;62.51;101177.56;5031002;28;20425;-77
2022/12/09 06:36:15;;;;;;;29.75;19.17;;;;;;;9.54;62.05;101175.97;5031318;28;20382;-77
2022/12/09 06:38:41;;;;;;;24.57;16.70;;;;;;;9.55;61.98;101173.19;5031046;28;20498;-76
2022/12/09 06:41:08;;;;;;;24.20;15.07;;;;;;;9.56;62.24;101179.28;5031090;28;20398;-76
2022/12/09 06:43:35;;;;;;;22.45;15.10;;;;;;;9.55;62.12;101175.81;5031107;28;20410;-76
2022/12/09 06:46:00;;;;;;;22.63;14.10;;;;;;;9.53;62.19;101171.69;5030863;28;20367;-76
2022/12/09 06:48:26;;;;;;;24.08;14.30;;;;;;;9.61;62.28;101184.16;5030291;28;20696;-76
2022/12/09 06:50:51;;;;;;;23.40;14.07;;;;;;;9.53;62.42;101182.25;5037124;28;20452;-76
2022/12/09 06:53:17;;;;;;;23.27;14.37;;;;;;;9.52;62.47;101181.41;5031014;28;20401;-76
2022/12/09 06:55:43;;;;;;;21.50;13.43;;;;;;;9.55;62.12;101194.34;5037613;28;20397;-76
2022/12/09 06:58:09;;;;;;;22.77;14.40;;;;;;;9.61;61.91;101194.72;5040145;28;20484;-77
2022/12/09 07:00:34;;;;;;;21.57;13.50;;;;;;;9.65;62.14;101186.34;5031970;28;20407;-78
2022/12/09 07:03:00;;;;;;;22.47;13.00;;;;;;;9.58;62.31;101190.59;5030881;28;20390;-76
2022/12/09 07:05:26;;;;;;;22.47;13.37;;;;;;;9.66;61.92;101201.22;5030594;28;20396;-77
2022/12/09 07:07:52;;;;;;;20.98;13.10;;;;;;;9.67;61.71;101210.84;5032633;28;20413;-76
2022/12/09 07:10:17;;;;;;;23.05;15.27;;;;;;;9.67;62.28;101213.50;5030937;28;20403;-77
2022/12/09 07:12:43;;;;;;;24.73;13.90;;;;;;;9.68;61.45;101203.72;5030882;28;20477;-77
2022/12/09 07:15:09;;;;;;;23.35;13.82;;;;;;;9.62;62.33;101205.19;5031169;28;20379;-78
2022/12/09 07:17:35;;;;;;;24.90;15.20;;;;;;;9.64;62.02;101207.66;5032393;28;20398;-77
2022/12/09 07:20:00;;;;;;;21.23;14.20;;;;;;;9.50;61.90;101204.56;5032647;28;20402;-77
2022/12/09 07:22:26;;;;;;;24.73;15.63;;;;;;;9.46;62.17;101192.63;5031998;28;20390;-77
2022/12/09 07:24:51;;;;;;;21.83;14.77;;;;;;;9.54;62.79;101213.88;5030304;28;20847;-76
2022/12/09 07:27:16;;;;;;;22.48;15.48;;;;;;;9.63;62.46;101214.75;5032132;28;20465;-76
2022/12/09 07:29:42;;;;;;;20.77;12.87;;;;;;;9.63;62.18;101212.13;5030836;28;20374;-78
2022/12/09 07:32:09;;;;;;;19.43;12.87;;;;;;;9.65;61.96;101223.41;5032697;28;20375;-77
2022/12/09 07:34:35;;;;;;;22.63;13.55;;;;;;;9.71;61.71;101219.31;5031129;28;20374;-77
2022/12/09 07:37:01;;;;;;;20.25;12.90;;;;;;;9.60;62.36;101220.38;5030992;28;20408;-78
2022/12/09 07:39:26;;;;;;;20.53;12.30;;;;;;;9.51;62.36;101214.16;5038255;28;20396;-76
2022/12/09 07:41:55;;;;;;;34.30;20.03;;;;;;;9.47;62.20;101207.53;5036940;28;20409;-77
2022/12/09 07:44:21;;;;;;;20.33;13.40;;;;;;;9.49;62.07;101221.44;5030278;28;20381;-77
2022/12/09 07:46:46;;;;;;;19.65;11.93;;;;;;;9.55;61.83;101220.81;5043163;28;20480;-76
2022/12/09 07:49:12;;;;;;;18.13;11.98;;;;;;;9.60;62.52;101222.16;5049558;28;20414;-77
2022/12/09 07:51:38;;;;;;;17.63;11.15;;;;;;;9.59;62.40;101221.34;5050601;28;20376;-77
2022/12/09 07:54:03;;;;;;;19.93;13.30;;;;;;;9.54;62.35;101224.47;5048701;28;20437;-77
2022/12/09 07:56:29;;;;;;;19.73;12.23;;;;;;;9.57;62.47;101226.78;5039126;28;20491;-77
2022/12/09 07:58:55;;;;;;;17.85;12.02;;;;;;;9.58;62.47;101230.28;5051198;28;20487;-77
2022/12/09 08:01:26;;;;;;;19.67;12.30;;;;;;;9.67;62.45;101226.72;5025823;28;20377;-78
2022/12/09 08:03:52;;;;;;;19.10;12.00;;;;;;;9.70;62.30;101236.16;5042257;28;20375;-76
2022/12/09 08:06:20;;;;;;;17.83;11.50;;;;;;;9.73;62.09;101242.00;5033550;28;20436;-77
2022/12/09 08:08:46;;;;;;;18.90;11.85;;;;;;;9.62;62.42;101223.69;5034534;28;20374;-77
2022/12/09 08:11:21;;;;;;;21.48;14.30;;;;;;;9.61;62.57;101223.84;5042329;28;20386;-77
2022/12/09 08:13:47;;;;;;;21.05;12.57;;;;;;;9.64;62.63;101224.38;5053562;28;20404;-76
2022/12/09 08:16:16;;;;;;;21.50;13.85;;;;;;;9.69;62.23;101213.34;5051783;28;20401;-77
2022/12/09 08:18:43;;;;;;;17.63;12.00;;;;;;;9.69;62.22;101218.66;5054952;28;20413;-76
2022/12/09 08:21:15;;;;;;;18.67;11.95;;;;;;;9.72;62.05;101207.72;5046144;28;20402;-77
2022/12/09 08:23:41;;;;;;;18.88;12.98;;;;;;;9.59;62.41;101215.22;5041624;28;20448;-77
2022/12/09 08:26:09;;;;;;;20.93;13.03;;;;;;;9.54;62.55;101205.94;5042692;28;20526;-77
2022/12/09 08:28:35;;;;;;;22.93;14.40;;;;;;;9.50;63.27;101201.91;5050647;28;20380;-76
2022/12/09 08:31:09;;;;;;;20.73;14.10;;;;;;;9.47;62.72;101211.97;5051767;28;20374;-76
2022/12/09 08:33:34;;;;;;;20.80;13.40;;;;;;;9.46;62.79;101218.25;5049047;28;20416;-76
2022/12/09 08:36:09;;;;;;;24.05;13.55;;;;;;;9.54;62.88;101218.31;5050381;28;20373;-75
2022/12/09 08:38:35;;;;;;;18.05;12.10;;;;;;;9.59;62.62;101218.69;5040631;28;20382;-79
2022/12/09 08:41:18;;;;;;;20.60;13.27;;;;;;;9.59;62.32;101213.41;5030640;28;20865;-78
2022/12/09 08:43:44;;;;;;;17.70;10.67;;;;;;;9.63;62.29;101211.28;5045364;28;20423;-77
2022/12/09 08:46:10;;;;;;;17.40;11.07;;;;;;;9.62;62.80;101213.13;5033029;28;20426;-77
2022/12/09 08:48:37;;;;;;;17.13;9.38;;;;;;;9.51;62.60;101208.88;5039883;28;20396;-77
2022/12/09 08:51:03;;;;;;;14.35;9.25;;;;;;;9.51;63.25;101211.53;5047429;28;20394;-76
2022/12/09 08:53:29;;;;;;;14.75;8.82;;;;;;;9.61;62.77;101202.69;5033405;28;20387;-78
2022/12/09 08:55:55;;;;;;;15.27;9.07;;;;;;;9.61;63.02;101195.56;5033403;28;20378;-77
2022/12/09 08:58:20;;;;;;;18.93;10.83;;;;;;;9.53;63.36;101192.84;5033683;28;20378;-78
2022/12/09 09:00:46;;;;;;;15.65;9.88;;;;;;;9.50;63.47;101188.66;5033053;28;20403;-76
2022/12/09 09:03:11;;;;;;;15.97;9.50;;;;;;;9.43;63.37;101176.22;5029294;28;20388;-79
2022/12/09 09:05:36;;;;;;;15.13;9.90;;;;;;;9.40;63.43;101179.16;5026535;28;20382;-79
2022/12/09 09:08:02;;;;;;;16.30;10.00;;;;;;;9.38;63.54;101180.16;5040643;28;20452;-77
2022/12/09 09:10:28;;;;;;;15.40;9.90;;;;;;;9.38;64.81;101169.56;5034004;28;20823;-78
2022/12/09 09:12:54;;;;;;;16.42;10.55;;;;;;;9.45;63.84;101171.59;5033915;28;20426;-80
2022/12/09 09:15:20;;;;;;;18.75;11.30;;;;;;;9.63;63.56;101158.34;5038457;28;20379;-79
2022/12/09 09:17:46;;;;;;;16.88;11.07;;;;;;;9.62;64.13;101146.13;5039362;28;20381;-79
2022/12/09 09:20:11;;;;;;;17.27;10.30;;;;;;;9.65;63.29;101140.50;5033817;28;20408;-78
2022/12/09 09:22:37;;;;;;;15.93;9.63;;;;;;;9.79;62.81;101141.78;5039784;28;20391;-78
2022/12/09 09:25:02;;;;;;;18.50;14.73;;;;;;;9.74;63.22;101135.13;5026594;28;20390;-79
2022/12/09 09:27:28;;;;;;;14.60;9.30;;;;;;;9.73;62.96;101143.22;5040286;28;20421;-78
2022/12/09 09:29:53;;;;;;;18.27;13.10;;;;;;;9.67;62.77;101123.50;5032369;28;20386;-78
2022/12/09 09:32:19;;;;;;;15.97;10.40;;;;;;;9.67;62.91;101125.28;5032504;28;20448;-77
2022/12/09 09:34:47;;;;;;;16.60;10.23;;;;;;;9.72;62.84;101123.00;5032196;28;20394;-76
2022/12/09 09:37:12;;;;;;;17.00;10.43;;;;;;;9.79;62.86;101117.94;5031506;28;20394;-76
2022/12/09 09:39:39;;;;;;;17.45;12.68;;;;;;;9.80;63.03;101107.19;5031886;28;20809;-76
2022/12/09 09:42:05;;;;;;;16.30;10.55;;;;;;;9.92;63.00;101113.91;5034551;28;20377;-77
2022/12/09 09:44:49;;;;;;;15.95;10.88;;;;;;;10.02;62.14;101112.97;5032313;28;20387;-76
2022/12/09 09:47:18;;;;;;;17.15;10.25;;;;;;;9.99;62.26;101105.31;5031697;28;20728;-77
2022/12/09 09:49:46;;;;;;;14.88;10.27;;;;;;;10.02;62.37;101097.91;5031879;28;20459;-77
2022/12/09 09:52:21;;;;;;;17.77;10.27;;;;;;;10.09;61.95;101093.63;5031813;28;20388;-77
2022/12/09 09:54:46;;;;;;;15.85;10.82;;;;;;;10.01;61.85;101084.81;5031817;28;20397;-78
2022/12/09 09:57:26;;;;;;;14.05;8.77;;;;;;;9.91;62.16;101084.94;5044359;28;20381;-78
2022/12/09 10:00:30;;;;;;;13.57;8.75;;;;;;;9.75;62.43;101086.47;5027034;28;20410;-77
2022/12/09 10:03:03;;;;;;;13.53;9.13;;;;;;;9.70;62.51;101072.88;5030140;28;20398;-78
2022/12/09 10:05:37;;;;;;;14.02;9.40;;;;;;;9.71;62.68;101071.88;5034783;28;20390;-77
2022/12/09 10:08:28;;;;;;;12.13;8.98;;;;;;;9.86;61.91;101058.91;5035062;28;20839;-76
2022/12/09 10:11:03;;;;;;;12.65;8.90;;;;;;;9.88;61.51;101056.94;5037992;28;20846;-77
2022/12/09 10:13:51;;;;;;;12.70;8.40;;;;;;;10.03;61.55;101051.03;5032836;28;20411;-77
2022/12/09 10:16:38;;;;;;;12.07;8.15;;;;;;;9.88;61.66;101037.56;5035892;28;20382;-76
2022/12/09 10:19:26;;;;;;;12.80;8.35;;;;;;;9.77;61.31;101039.50;5020583;28;20413;-78
2022/12/09 10:21:53;;;;;;;14.32;9.43;;;;;;;9.87;61.56;101046.53;5023599;28;20397;-77
2022/12/09 10:24:21;;;;;;;13.93;9.80;;;;;;;9.83;61.83;101048.66;5032646;28;20401;-78
2022/12/09 10:27:01;;;;;;;18.13;11.32;;;;;;;9.79;61.94;101047.28;5030282;28;20390;-78
2022/12/09 10:29:54;;;;;;;18.95;12.10;;;;;;;9.62;62.59;101037.59;5033262;28;20393;-77
2022/12/09 10:32:23;;;;;;;19.88;11.40;;;;;;;9.54;62.59;101043.66;5019978;28;20362;-77
2022/12/09 10:34:48;;;;;;;20.98;12.23;;;;;;;9.49;62.98;101038.84;5030928;28;20401;-77
2022/12/09 10:37:35;;;;;;;24.13;13.33;;;;;;;9.45;62.67;101040.09;5035106;28;20746;-77
2022/12/09 10:40:06;;;;;;;23.27;13.70;;;;;;;9.56;62.72;101045.16;5040254;28;20489;-77
2022/12/09 10:45:44;;;;;;;22.38;14.23;;;;;;;9.37;62.53;101045.34;5030837;28;20401;-77
2022/12/09 10:48:33;;;;;;;22.73;14.25;;;;;;;9.40;62.57;101041.56;5031716;28;20402;-77
2022/12/09 10:51:02;;;;;;;25.33;15.18;;;;;;;9.47;62.80;101042.59;5038810;28;20424;-77
2022/12/09 10:53:28;;;;;;;25.55;15.07;;;;;;;9.46;62.68;101025.91;5030947;28;20378;-78
2022/12/09 10:55:56;;;;;;;28.55;16.63;;;;;;;9.42;62.78;101029.84;5030533;28;20374;-76
2022/12/09 10:58:25;;;;;;;27.63;17.15;;;;;;;9.45;62.59;101029.53;5036345;28;20381;-76
2022/12/09 11:01:02;;;;;;;32.45;19.02;;;;;;;9.40;62.15;101015.94;5039036;28;20499;-76
2022/12/09 11:03:30;;;;;;;30.58;18.63;;;;;;;9.27;63.20;101007.56;5033265;28;20453;-76
2022/12/09 11:06:31;;;;;;;27.92;17.70;;;;;;;9.33;62.64;100991.91;5030572;28;20374;-78
2022/12/09 11:08:59;;;;;;;28.33;18.27;;;;;;;9.40;62.62;101010.66;5030786;28;20397;-79
2022/12/09 11:11:58;;;;;;;39.15;24.40;;;;;;;9.47;62.65;101010.84;5031306;28;20705;-80
2022/12/09 11:14:51;;;;;;;30.13;18.45;;;;;;;9.54;62.40;101017.19;5004790;28;20424;-76
2022/12/09 11:17:20;;;;;;;26.90;17.13;;;;;;;9.54;62.33;101019.81;5037968;28;20405;-77
2022/12/09 11:20:09;;;;;;;26.60;16.93;;;;;;;9.40;62.05;101001.88;5048541;28;20416;-79
2022/12/09 11:22:40;;;;;;;25.33;16.38;;;;;;;9.39;62.60;100995.75;5049104;28;20911;-77
2022/12/09 11:25:11;;;;;;;27.13;16.15;;;;;;;9.41;62.45;100993.78;5047606;28;20412;-77
2022/12/09 11:27:39;;;;;;;23.48;15.40;;;;;;;9.30;62.51;100983.47;5047568;28;20744;-79